VOHY/HYD METAR and TAF weather

Enter ICAO airport designator
Station Type Date Time Source
VOHY METAR 2020/01/17 16:00 UTC NOAA

VOHY 171600Z 11004KT 5000 HZ FEW015 SCT100 24/19 Q1018 NOSIG


Station Type Date Time Source
VOHY Decoded METAR 2020/01/17 16:00 UTC NOAA

Hyderabad Airport, India (VOHY) 17-27N 078-28E 545M
Jan 17, 2020 - 11:00 AM EST / 2020.01.17 1600 UTC
Wind: from the ESE (110 degrees) at 5 MPH (4 KT):0
Visibility: 3 mile(s):0
Sky conditions: partly cloudy
Weather: haze
Temperature: 75 F (24 C)
Dew Point: 66 F (19 C)
Relative Humidity: 73%
Pressure (altimeter): 30.06 in. Hg (1018 hPa)
ob: VOHY 171600Z 11004KT 5000 HZ FEW015 SCT100 24/19 Q1018 NOSIG
cycle: 16

Station Type Date Time Source
VOHY TAF 2020/01/17 12:00 UTC NOAA

TAF VOHY 171100Z 1712/1721 13005KT 5000 BR FEW015
TEMPO 1716/1721 12006KT 5000 HZ FEW025 SCT100

Example: see airport list